Terminal Aerodrome Forecast
Issued by NWS

Home | Current Version | Previous Version | Text Only | Print | Product List | Glossary On
Versions: 1 2 3 4 5 6 7 8 9 10 11 12 13 14 15 16 17 18 19
565
FTUS43 KFGF 080529
TAFDVL
TAF
KDVL 080529Z 0806/0906 33024G30KT P6SM OVC025
     FM081500 34021G30KT P6SM SCT015
     FM082100 34016KT P6SM SCT120
     FM090300 33010KT P6SM BKN120=

USA.gov is the U.S. government's official web portal to all federal, state and local government web resources and services.